sensor_id;sensor_type;location;lat;lon;timestamp;P1;durP1;ratioP1;P2;durP2;ratioP2
58055;SDS011;53159;55.152;36.614;2022-09-20T00:01:27;1.27;;;1.15;;
58055;SDS011;53159;55.152;36.614;2022-09-20T00:03:59;2.83;;;1.35;;
58055;SDS011;53159;55.152;36.614;2022-09-20T00:06:28;1.55;;;1.20;;
58055;SDS011;53159;55.152;36.614;2022-09-20T00:08:57;1.75;;;1.48;;
58055;SDS011;53159;55.152;36.614;2022-09-20T00:11:26;1.92;;;1.20;;
58055;SDS011;53159;55.152;36.614;2022-09-20T00:13:57;1.65;;;1.20;;
58055;SDS011;53159;55.152;36.614;2022-09-20T00:16:27;3.53;;;1.20;;
58055;SDS011;53159;55.152;36.614;2022-09-20T00:19:01;1.58;;;1.15;;
58055;SDS011;53159;55.152;36.614;2022-09-20T00:21:30;1.77;;;1.30;;
58055;SDS011;53159;55.152;36.614;2022-09-20T00:24:01;1.00;;;1.00;;
58055;SDS011;53159;55.152;36.614;2022-09-20T00:26:29;2.15;;;1.10;;
58055;SDS011;53159;55.152;36.614;2022-09-20T00:28:57;2.20;;;1.63;;
58055;SDS011;53159;55.152;36.614;2022-09-20T00:31:24;2.85;;;1.30;;
58055;SDS011;53159;55.152;36.614;2022-09-20T00:33:55;2.35;;;1.20;;
58055;SDS011;53159;55.152;36.614;2022-09-20T00:36:43;2.13;;;1.50;;
58055;SDS011;53159;55.152;36.614;2022-09-20T00:39:11;2.25;;;1.25;;
58055;SDS011;53159;55.152;36.614;2022-09-20T00:41:39;1.30;;;1.20;;
58055;SDS011;53159;55.152;36.614;2022-09-20T00:47:26;1.25;;;0.98;;
58055;SDS011;53159;55.152;36.614;2022-09-20T00:50:07;1.75;;;1.20;;
58055;SDS011;53159;55.152;36.614;2022-09-20T00:56:01;1.15;;;1.00;;
58055;SDS011;53159;55.152;36.614;2022-09-20T00:58:33;1.40;;;1.20;;
58055;SDS011;53159;55.152;36.614;2022-09-20T01:01:05;2.53;;;1.30;;
58055;SDS011;53159;55.152;36.614;2022-09-20T01:03:33;2.75;;;1.40;;
58055;SDS011;53159;55.152;36.614;2022-09-20T01:06:03;1.80;;;1.10;;
58055;SDS011;53159;55.152;36.614;2022-09-20T01:08:33;1.58;;;1.27;;
58055;SDS011;53159;55.152;36.614;2022-09-20T01:11:02;1.67;;;1.33;;
58055;SDS011;53159;55.152;36.614;2022-09-20T01:13:30;2.20;;;1.50;;
58055;SDS011;53159;55.152;36.614;2022-09-20T01:15:57;1.73;;;1.40;;
58055;SDS011;53159;55.152;36.614;2022-09-20T01:18:29;1.73;;;1.38;;
58055;SDS011;53159;55.152;36.614;2022-09-20T01:20:59;1.92;;;1.00;;
58055;SDS011;53159;55.152;36.614;2022-09-20T01:24:11;2.88;;;1.33;;
58055;SDS011;53159;55.152;36.614;2022-09-20T01:32:33;2.63;;;1.50;;
58055;SDS011;53159;55.152;36.614;2022-09-20T01:35:20;1.48;;;1.30;;
58055;SDS011;53159;55.152;36.614;2022-09-20T01:43:36;2.67;;;1.25;;
58055;SDS011;53159;55.152;36.614;2022-09-20T01:46:23;2.03;;;1.73;;
58055;SDS011;53159;55.152;36.614;2022-09-20T01:54:59;2.13;;;1.58;;
58055;SDS011;53159;55.152;36.614;2022-09-20T02:02:53;1.95;;;1.42;;
58055;SDS011;53159;55.152;36.614;2022-09-20T02:11:50;3.78;;;1.52;;
58055;SDS011;53159;55.152;36.614;2022-09-20T02:17:02;4.30;;;1.88;;
58055;SDS011;53159;55.152;36.614;2022-09-20T02:42:28;3.60;;;1.50;;
58055;SDS011;53159;55.152;36.614;2022-09-20T02:45:01;1.70;;;1.50;;
58055;SDS011;53159;55.152;36.614;2022-09-20T02:53:07;3.13;;;1.50;;
58055;SDS011;53159;55.152;36.614;2022-09-20T03:35:29;1.30;;;1.20;;
58055;SDS011;53159;55.152;36.614;2022-09-20T03:38:11;1.83;;;1.35;;
58055;SDS011;53159;55.152;36.614;2022-09-20T03:46:20;2.58;;;1.27;;
58055;SDS011;53159;55.152;36.614;2022-09-20T04:06:17;1.50;;;1.23;;
58055;SDS011;53159;55.152;36.614;2022-09-20T04:22:42;1.70;;;1.60;;
58055;SDS011;53159;55.152;36.614;2022-09-20T04:25:16;1.50;;;1.40;;
58055;SDS011;53159;55.152;36.614;2022-09-20T04:27:56;2.15;;;1.95;;
58055;SDS011;53159;55.152;36.614;2022-09-20T04:33:14;2.88;;;1.63;;
58055;SDS011;53159;55.152;36.614;2022-09-20T04:38:39;3.33;;;1.85;;
58055;SDS011;53159;55.152;36.614;2022-09-20T04:49:49;4.82;;;1.85;;
58055;SDS011;53159;55.152;36.614;2022-09-20T05:13:14;1.65;;;1.52;;
58055;SDS011;53159;55.152;36.614;2022-09-20T05:16:02;3.15;;;1.80;;
58055;SDS011;53159;55.152;36.614;2022-09-20T05:19:02;1.85;;;1.58;;
58055;SDS011;53159;55.152;36.614;2022-09-20T05:35:31;2.33;;;2.13;;
58055;SDS011;53159;55.152;36.614;2022-09-20T05:41:17;3.50;;;1.80;;
58055;SDS011;53159;55.152;36.614;2022-09-20T05:44:25;3.13;;;1.35;;
58055;SDS011;53159;55.152;36.614;2022-09-20T05:47:23;2.58;;;1.38;;
58055;SDS011;53159;55.152;36.614;2022-09-20T05:50:15;2.40;;;1.73;;
58055;SDS011;53159;55.152;36.614;2022-09-20T05:55:27;3.03;;;1.48;;
58055;SDS011;53159;55.152;36.614;2022-09-20T06:01:13;3.15;;;1.70;;
58055;SDS011;53159;55.152;36.614;2022-09-20T06:03:51;2.60;;;1.35;;
58055;SDS011;53159;55.152;36.614;2022-09-20T06:09:28;2.45;;;1.60;;
58055;SDS011;53159;55.152;36.614;2022-09-20T06:20:57;2.75;;;1.48;;
58055;SDS011;53159;55.152;36.614;2022-09-20T06:23:43;3.72;;;1.48;;
58055;SDS011;53159;55.152;36.614;2022-09-20T06:26:15;2.03;;;1.67;;
58055;SDS011;53159;55.152;36.614;2022-09-20T06:28:53;2.45;;;1.30;;
58055;SDS011;53159;55.152;36.614;2022-09-20T06:31:31;1.65;;;1.55;;
58055;SDS011;53159;55.152;36.614;2022-09-20T06:36:35;2.83;;;1.20;;
58055;SDS011;53159;55.152;36.614;2022-09-20T06:39:27;2.10;;;1.40;;
58055;SDS011;53159;55.152;36.614;2022-09-20T06:42:42;2.03;;;1.42;;
58055;SDS011;53159;55.152;36.614;2022-09-20T06:45:10;1.70;;;1.52;;
58055;SDS011;53159;55.152;36.614;2022-09-20T06:47:40;1.40;;;1.30;;
58055;SDS011;53159;55.152;36.614;2022-09-20T06:50:13;1.75;;;1.42;;
58055;SDS011;53159;55.152;36.614;2022-09-20T06:52:43;1.70;;;1.35;;
58055;SDS011;53159;55.152;36.614;2022-09-20T06:55:16;1.70;;;1.35;;
58055;SDS011;53159;55.152;36.614;2022-09-20T06:57:54;2.85;;;1.15;;
58055;SDS011;53159;55.152;36.614;2022-09-20T07:00:20;1.45;;;1.35;;
58055;SDS011;53159;55.152;36.614;2022-09-20T07:02:48;2.75;;;1.48;;
58055;SDS011;53159;55.152;36.614;2022-09-20T07:05:16;1.60;;;1.17;;
58055;SDS011;53159;55.152;36.614;2022-09-20T07:07:49;3.50;;;1.20;;
58055;SDS011;53159;55.152;36.614;2022-09-20T07:10:24;2.88;;;1.38;;
58055;SDS011;53159;55.152;36.614;2022-09-20T07:13:00;1.80;;;1.30;;
58055;SDS011;53159;55.152;36.614;2022-09-20T07:15:30;2.28;;;1.60;;
58055;SDS011;53159;55.152;36.614;2022-09-20T07:17:59;1.52;;;1.30;;
58055;SDS011;53159;55.152;36.614;2022-09-20T07:20:26;3.63;;;1.67;;
58055;SDS011;53159;55.152;36.614;2022-09-20T07:22:53;2.88;;;1.35;;
58055;SDS011;53159;55.152;36.614;2022-09-20T07:25:20;1.77;;;1.40;;
58055;SDS011;53159;55.152;36.614;2022-09-20T07:27:48;2.13;;;1.92;;
58055;SDS011;53159;55.152;36.614;2022-09-20T07:30:16;1.48;;;1.27;;
58055;SDS011;53159;55.152;36.614;2022-09-20T07:32:48;1.35;;;1.20;;
58055;SDS011;53159;55.152;36.614;2022-09-20T07:35:16;1.35;;;1.25;;
58055;SDS011;53159;55.152;36.614;2022-09-20T07:37:44;4.05;;;1.75;;
58055;SDS011;53159;55.152;36.614;2022-09-20T07:40:13;4.45;;;2.17;;
58055;SDS011;53159;55.152;36.614;2022-09-20T07:42:41;2.33;;;1.95;;
58055;SDS011;53159;55.152;36.614;2022-09-20T07:45:10;2.35;;;1.98;;
58055;SDS011;53159;55.152;36.614;2022-09-20T07:47:41;2.10;;;1.90;;
58055;SDS011;53159;55.152;36.614;2022-09-20T07:50:09;4.25;;;2.17;;
58055;SDS011;53159;55.152;36.614;2022-09-20T07:52:36;1.88;;;1.67;;
58055;SDS011;53159;55.152;36.614;2022-09-20T07:55:03;3.33;;;2.20;;
58055;SDS011;53159;55.152;36.614;2022-09-20T07:57:35;6.10;;;2.25;;
58055;SDS011;53159;55.152;36.614;2022-09-20T08:00:03;4.70;;;2.17;;
58055;SDS011;53159;55.152;36.614;2022-09-20T08:02:38;5.15;;;2.17;;
58055;SDS011;53159;55.152;36.614;2022-09-20T08:05:06;4.32;;;2.13;;
58055;SDS011;53159;55.152;36.614;2022-09-20T08:07:35;2.80;;;1.85;;
58055;SDS011;53159;55.152;36.614;2022-09-20T08:10:05;3.22;;;2.35;;
58055;SDS011;53159;55.152;36.614;2022-09-20T08:12:32;3.35;;;2.10;;
58055;SDS011;53159;55.152;36.614;2022-09-20T08:15:00;2.08;;;1.90;;
58055;SDS011;53159;55.152;36.614;2022-09-20T08:17:29;5.70;;;1.98;;
58055;SDS011;53159;55.152;36.614;2022-09-20T08:19:59;3.35;;;1.90;;
58055;SDS011;53159;55.152;36.614;2022-09-20T08:22:27;3.00;;;1.77;;
58055;SDS011;53159;55.152;36.614;2022-09-20T08:24:58;6.38;;;2.45;;
58055;SDS011;53159;55.152;36.614;2022-09-20T08:27:26;3.15;;;1.73;;
58055;SDS011;53159;55.152;36.614;2022-09-20T08:29:52;3.40;;;1.70;;
58055;SDS011;53159;55.152;36.614;2022-09-20T08:32:22;2.88;;;2.25;;
58055;SDS011;53159;55.152;36.614;2022-09-20T08:34:50;3.63;;;2.13;;
58055;SDS011;53159;55.152;36.614;2022-09-20T08:37:17;2.30;;;2.03;;
58055;SDS011;53159;55.152;36.614;2022-09-20T08:39:45;3.28;;;1.55;;
58055;SDS011;53159;55.152;36.614;2022-09-20T08:42:30;4.78;;;1.92;;
58055;SDS011;53159;55.152;36.614;2022-09-20T08:45:03;5.45;;;1.85;;
58055;SDS011;53159;55.152;36.614;2022-09-20T08:47:45;2.05;;;1.63;;
58055;SDS011;53159;55.152;36.614;2022-09-20T08:50:17;3.72;;;1.48;;
58055;SDS011;53159;55.152;36.614;2022-09-20T08:52:45;2.10;;;1.63;;
58055;SDS011;53159;55.152;36.614;2022-09-20T08:57:48;3.53;;;2.10;;
58055;SDS011;53159;55.152;36.614;2022-09-20T09:00:18;1.88;;;1.50;;
58055;SDS011;53159;55.152;36.614;2022-09-20T09:02:53;1.60;;;1.48;;
58055;SDS011;53159;55.152;36.614;2022-09-20T09:05:33;2.65;;;1.92;;
58055;SDS011;53159;55.152;36.614;2022-09-20T09:08:13;4.40;;;1.60;;
58055;SDS011;53159;55.152;36.614;2022-09-20T09:10:47;2.20;;;1.55;;
58055;SDS011;53159;55.152;36.614;2022-09-20T09:16:19;2.30;;;1.88;;
58055;SDS011;53159;55.152;36.614;2022-09-20T09:18:49;2.45;;;1.20;;
58055;SDS011;53159;55.152;36.614;2022-09-20T09:21:20;4.25;;;1.80;;
58055;SDS011;53159;55.152;36.614;2022-09-20T09:24:22;3.05;;;1.48;;
58055;SDS011;53159;55.152;36.614;2022-09-20T09:26:45;1.58;;;1.48;;
58055;SDS011;53159;55.152;36.614;2022-09-20T09:29:17;2.15;;;1.80;;
58055;SDS011;53159;55.152;36.614;2022-09-20T09:31:48;2.50;;;1.38;;
58055;SDS011;53159;55.152;36.614;2022-09-20T09:34:24;2.55;;;1.25;;
58055;SDS011;53159;55.152;36.614;2022-09-20T09:37:01;1.50;;;1.40;;
58055;SDS011;53159;55.152;36.614;2022-09-20T09:39:33;1.92;;;1.65;;
58055;SDS011;53159;55.152;36.614;2022-09-20T09:42:20;5.78;;;1.33;;
58055;SDS011;53159;55.152;36.614;2022-09-20T09:45:08;2.35;;;1.50;;
58055;SDS011;53159;55.152;36.614;2022-09-20T09:47:38;2.63;;;1.70;;
58055;SDS011;53159;55.152;36.614;2022-09-20T09:50:09;1.48;;;1.38;;
58055;SDS011;53159;55.152;36.614;2022-09-20T09:52:58;4.07;;;1.60;;
58055;SDS011;53159;55.152;36.614;2022-09-20T09:55:32;1.45;;;1.30;;
58055;SDS011;53159;55.152;36.614;2022-09-20T10:00:54;2.03;;;1.65;;
58055;SDS011;53159;55.152;36.614;2022-09-20T10:20:30;5.10;;;1.95;;
58055;SDS011;53159;55.152;36.614;2022-09-20T10:29:04;2.60;;;1.90;;
58055;SDS011;53159;55.152;36.614;2022-09-20T10:31:38;3.40;;;1.88;;
58055;SDS011;53159;55.152;36.614;2022-09-20T10:37:09;2.10;;;1.90;;
58055;SDS011;53159;55.152;36.614;2022-09-20T10:39:52;2.90;;;1.90;;
58055;SDS011;53159;55.152;36.614;2022-09-20T10:42:44;2.97;;;1.90;;
58055;SDS011;53159;55.152;36.614;2022-09-20T10:51:16;2.95;;;1.80;;
58055;SDS011;53159;55.152;36.614;2022-09-20T10:53:56;2.53;;;1.80;;
58055;SDS011;53159;55.152;36.614;2022-09-20T10:56:42;2.55;;;1.92;;
58055;SDS011;53159;55.152;36.614;2022-09-20T10:59:39;3.10;;;1.70;;
58055;SDS011;53159;55.152;36.614;2022-09-20T11:05:17;2.85;;;1.70;;
58055;SDS011;53159;55.152;36.614;2022-09-20T11:16:45;2.72;;;1.75;;
58055;SDS011;53159;55.152;36.614;2022-09-20T11:19:25;4.25;;;2.05;;
58055;SDS011;53159;55.152;36.614;2022-09-20T11:22:08;5.35;;;2.17;;
58055;SDS011;53159;55.152;36.614;2022-09-20T11:24:47;3.92;;;1.95;;
58055;SDS011;53159;55.152;36.614;2022-09-20T11:27:36;7.40;;;2.85;;
58055;SDS011;53159;55.152;36.614;2022-09-20T11:30:28;5.68;;;2.10;;
58055;SDS011;53159;55.152;36.614;2022-09-20T11:33:11;2.85;;;2.20;;
58055;SDS011;53159;55.152;36.614;2022-09-20T11:35:57;2.72;;;2.13;;
58055;SDS011;53159;55.152;36.614;2022-09-20T11:41:25;3.80;;;2.30;;
58055;SDS011;53159;55.152;36.614;2022-09-20T11:43:56;4.43;;;2.30;;
58055;SDS011;53159;55.152;36.614;2022-09-20T11:46:37;3.38;;;2.13;;
58055;SDS011;53159;55.152;36.614;2022-09-20T11:49:12;2.85;;;2.13;;
58055;SDS011;53159;55.152;36.614;2022-09-20T11:54:39;3.13;;;2.30;;
58055;SDS011;53159;55.152;36.614;2022-09-20T11:57:22;3.47;;;2.45;;
58055;SDS011;53159;55.152;36.614;2022-09-20T11:59:57;2.33;;;2.00;;
58055;SDS011;53159;55.152;36.614;2022-09-20T12:02:45;5.65;;;2.88;;
58055;SDS011;53159;55.152;36.614;2022-09-20T12:07:54;2.63;;;2.20;;
58055;SDS011;53159;55.152;36.614;2022-09-20T12:10:27;3.08;;;2.58;;
58055;SDS011;53159;55.152;36.614;2022-09-20T12:13:02;4.80;;;2.47;;
58055;SDS011;53159;55.152;36.614;2022-09-20T12:15:38;3.97;;;2.20;;
58055;SDS011;53159;55.152;36.614;2022-09-20T12:20:58;2.22;;;2.00;;
58055;SDS011;53159;55.152;36.614;2022-09-20T12:23:42;4.32;;;1.92;;
58055;SDS011;53159;55.152;36.614;2022-09-20T12:31:55;2.25;;;1.95;;
58055;SDS011;53159;55.152;36.614;2022-09-20T12:39:23;3.85;;;2.72;;
58055;SDS011;53159;55.152;36.614;2022-09-20T12:42:19;2.00;;;1.63;;
58055;SDS011;53159;55.152;36.614;2022-09-20T12:47:32;1.90;;;1.80;;
58055;SDS011;53159;55.152;36.614;2022-09-20T12:50:03;2.45;;;1.52;;
58055;SDS011;53159;55.152;36.614;2022-09-20T12:53:03;3.22;;;1.70;;
58055;SDS011;53159;55.152;36.614;2022-09-20T13:03:45;2.75;;;1.80;;
58055;SDS011;53159;55.152;36.614;2022-09-20T13:11:38;2.60;;;2.10;;
58055;SDS011;53159;55.152;36.614;2022-09-20T13:14:11;2.42;;;2.15;;
58055;SDS011;53159;55.152;36.614;2022-09-20T13:19:57;1.67;;;1.58;;
58055;SDS011;53159;55.152;36.614;2022-09-20T13:22:34;2.10;;;1.90;;
58055;SDS011;53159;55.152;36.614;2022-09-20T13:25:13;3.13;;;1.83;;
58055;SDS011;53159;55.152;36.614;2022-09-20T13:27:46;2.50;;;1.70;;
58055;SDS011;53159;55.152;36.614;2022-09-20T13:30:36;2.25;;;1.83;;
58055;SDS011;53159;55.152;36.614;2022-09-20T13:33:13;2.28;;;1.85;;
58055;SDS011;53159;55.152;36.614;2022-09-20T13:35:43;2.20;;;1.98;;
58055;SDS011;53159;55.152;36.614;2022-09-20T13:38:12;2.60;;;2.15;;
58055;SDS011;53159;55.152;36.614;2022-09-20T13:40:45;4.47;;;2.17;;
58055;SDS011;53159;55.152;36.614;2022-09-20T13:43:24;2.25;;;1.58;;
58055;SDS011;53159;55.152;36.614;2022-09-20T13:46:35;1.33;;;1.23;;
58055;SDS011;53159;55.152;36.614;2022-09-20T13:49:17;1.77;;;1.58;;
58055;SDS011;53159;55.152;36.614;2022-09-20T13:51:49;2.47;;;1.45;;
58055;SDS011;53159;55.152;36.614;2022-09-20T13:54:27;3.10;;;1.70;;
58055;SDS011;53159;55.152;36.614;2022-09-20T13:57:05;3.75;;;1.95;;
58055;SDS011;53159;55.152;36.614;2022-09-20T13:59:45;2.00;;;1.63;;
58055;SDS011;53159;55.152;36.614;2022-09-20T14:05:01;2.67;;;2.00;;
58055;SDS011;53159;55.152;36.614;2022-09-20T14:07:31;2.50;;;1.65;;
58055;SDS011;53159;55.152;36.614;2022-09-20T14:10:02;4.15;;;1.90;;
58055;SDS011;53159;55.152;36.614;2022-09-20T14:12:29;3.03;;;1.90;;
58055;SDS011;53159;55.152;36.614;2022-09-20T14:14:59;3.15;;;1.75;;
58055;SDS011;53159;55.152;36.614;2022-09-20T14:17:34;2.55;;;1.80;;
58055;SDS011;53159;55.152;36.614;2022-09-20T14:20:01;2.88;;;1.45;;
58055;SDS011;53159;55.152;36.614;2022-09-20T14:22:28;2.90;;;1.38;;
58055;SDS011;53159;55.152;36.614;2022-09-20T14:27:39;2.25;;;1.55;;
58055;SDS011;53159;55.152;36.614;2022-09-20T14:30:26;2.08;;;1.42;;
58055;SDS011;53159;55.152;36.614;2022-09-20T14:32:59;1.80;;;1.63;;
58055;SDS011;53159;55.152;36.614;2022-09-20T14:35:27;3.33;;;1.50;;
58055;SDS011;53159;55.152;36.614;2022-09-20T14:37:56;1.88;;;1.45;;
58055;SDS011;53159;55.152;36.614;2022-09-20T14:40:41;1.90;;;1.50;;
58055;SDS011;53159;55.152;36.614;2022-09-20T14:43:19;3.28;;;2.00;;
58055;SDS011;53159;55.152;36.614;2022-09-20T14:45:57;2.03;;;1.58;;
58055;SDS011;53159;55.152;36.614;2022-09-20T14:48:34;3.45;;;2.10;;
58055;SDS011;53159;55.152;36.614;2022-09-20T14:51:09;3.55;;;2.28;;
58055;SDS011;53159;55.152;36.614;2022-09-20T14:53:49;2.20;;;2.00;;
58055;SDS011;53159;55.152;36.614;2022-09-20T14:56:38;4.78;;;2.50;;
58055;SDS011;53159;55.152;36.614;2022-09-20T15:02:10;2.03;;;1.83;;
58055;SDS011;53159;55.152;36.614;2022-09-20T15:04:40;3.42;;;2.05;;
58055;SDS011;53159;55.152;36.614;2022-09-20T15:07:17;2.13;;;1.92;;
58055;SDS011;53159;55.152;36.614;2022-09-20T15:09:47;3.28;;;2.20;;
58055;SDS011;53159;55.152;36.614;2022-09-20T15:12:15;2.38;;;2.17;;
58055;SDS011;53159;55.152;36.614;2022-09-20T15:14:44;3.47;;;1.80;;
58055;SDS011;53159;55.152;36.614;2022-09-20T15:17:16;2.38;;;2.13;;
58055;SDS011;53159;55.152;36.614;2022-09-20T15:19:45;2.55;;;2.03;;
58055;SDS011;53159;55.152;36.614;2022-09-20T15:22:13;5.85;;;2.38;;
58055;SDS011;53159;55.152;36.614;2022-09-20T15:24:41;3.20;;;2.47;;
58055;SDS011;53159;55.152;36.614;2022-09-20T15:27:08;4.85;;;2.55;;
58055;SDS011;53159;55.152;36.614;2022-09-20T15:29:39;3.22;;;2.10;;
58055;SDS011;53159;55.152;36.614;2022-09-20T15:32:08;4.22;;;2.25;;
58055;SDS011;53159;55.152;36.614;2022-09-20T15:34:37;4.22;;;2.22;;
58055;SDS011;53159;55.152;36.614;2022-09-20T15:37:04;5.93;;;2.80;;
58055;SDS011;53159;55.152;36.614;2022-09-20T15:39:32;4.47;;;2.42;;
58055;SDS011;53159;55.152;36.614;2022-09-20T15:42:00;4.55;;;2.60;;
58055;SDS011;53159;55.152;36.614;2022-09-20T15:44:29;3.42;;;2.67;;
58055;SDS011;53159;55.152;36.614;2022-09-20T15:46:59;3.53;;;2.53;;
58055;SDS011;53159;55.152;36.614;2022-09-20T15:49:26;3.75;;;2.75;;
58055;SDS011;53159;55.152;36.614;2022-09-20T15:51:55;4.03;;;2.40;;
58055;SDS011;53159;55.152;36.614;2022-09-20T15:54:23;4.00;;;2.60;;
58055;SDS011;53159;55.152;36.614;2022-09-20T15:56:52;4.43;;;2.70;;
58055;SDS011;53159;55.152;36.614;2022-09-20T15:59:20;5.90;;;3.35;;
58055;SDS011;53159;55.152;36.614;2022-09-20T16:01:50;7.60;;;2.80;;
58055;SDS011;53159;55.152;36.614;2022-09-20T16:04:18;4.60;;;3.15;;
58055;SDS011;53159;55.152;36.614;2022-09-20T16:06:47;3.97;;;3.25;;
58055;SDS011;53159;55.152;36.614;2022-09-20T16:09:15;4.43;;;3.17;;
58055;SDS011;53159;55.152;36.614;2022-09-20T16:11:45;4.22;;;3.38;;
58055;SDS011;53159;55.152;36.614;2022-09-20T16:14:14;4.32;;;3.22;;
58055;SDS011;53159;55.152;36.614;2022-09-20T16:16:41;4.40;;;3.28;;
58055;SDS011;53159;55.152;36.614;2022-09-20T16:19:08;7.63;;;3.33;;
58055;SDS011;53159;55.152;36.614;2022-09-20T16:21:48;10.68;;;3.88;;
58055;SDS011;53159;55.152;36.614;2022-09-20T16:24:22;4.75;;;3.55;;
58055;SDS011;53159;55.152;36.614;2022-09-20T16:26:52;8.93;;;3.97;;
58055;SDS011;53159;55.152;36.614;2022-09-20T16:29:18;5.18;;;3.42;;
58055;SDS011;53159;55.152;36.614;2022-09-20T16:31:48;4.45;;;3.20;;
58055;SDS011;53159;55.152;36.614;2022-09-20T16:34:17;4.07;;;2.75;;
58055;SDS011;53159;55.152;36.614;2022-09-20T16:36:47;12.65;;;6.18;;
58055;SDS011;53159;55.152;36.614;2022-09-20T16:39:17;4.90;;;3.25;;
58055;SDS011;53159;55.152;36.614;2022-09-20T16:41:45;5.47;;;3.88;;
58055;SDS011;53159;55.152;36.614;2022-09-20T16:44:14;4.22;;;3.33;;
58055;SDS011;53159;55.152;36.614;2022-09-20T16:46:42;4.50;;;3.53;;
58055;SDS011;53159;55.152;36.614;2022-09-20T16:49:10;4.68;;;3.55;;
58055;SDS011;53159;55.152;36.614;2022-09-20T16:51:39;6.60;;;3.33;;
58055;SDS011;53159;55.152;36.614;2022-09-20T16:54:09;6.53;;;3.15;;
58055;SDS011;53159;55.152;36.614;2022-09-20T16:56:47;5.32;;;2.90;;
58055;SDS011;53159;55.152;36.614;2022-09-20T16:59:18;5.70;;;3.70;;
58055;SDS011;53159;55.152;36.614;2022-09-20T17:01:50;6.72;;;2.90;;
58055;SDS011;53159;55.152;36.614;2022-09-20T17:04:18;7.18;;;3.72;;
58055;SDS011;53159;55.152;36.614;2022-09-20T17:06:47;4.25;;;2.60;;
58055;SDS011;53159;55.152;36.614;2022-09-20T17:09:15;5.05;;;2.72;;
58055;SDS011;53159;55.152;36.614;2022-09-20T17:11:43;4.50;;;3.40;;
58055;SDS011;53159;55.152;36.614;2022-09-20T17:14:13;4.43;;;2.70;;
58055;SDS011;53159;55.152;36.614;2022-09-20T17:16:46;4.82;;;3.35;;
58055;SDS011;53159;55.152;36.614;2022-09-20T17:19:18;3.85;;;2.70;;
58055;SDS011;53159;55.152;36.614;2022-09-20T17:21:47;4.47;;;2.80;;
58055;SDS011;53159;55.152;36.614;2022-09-20T17:24:16;6.60;;;2.70;;
58055;SDS011;53159;55.152;36.614;2022-09-20T17:26:45;7.05;;;3.10;;
58055;SDS011;53159;55.152;36.614;2022-09-20T17:29:15;4.93;;;2.80;;
58055;SDS011;53159;55.152;36.614;2022-09-20T17:31:45;14.02;;;4.13;;
58055;SDS011;53159;55.152;36.614;2022-09-20T17:34:14;4.25;;;2.90;;
58055;SDS011;53159;55.152;36.614;2022-09-20T17:36:45;4.00;;;2.70;;
58055;SDS011;53159;55.152;36.614;2022-09-20T17:39:13;5.05;;;3.13;;
58055;SDS011;53159;55.152;36.614;2022-09-20T17:41:41;6.72;;;3.53;;
58055;SDS011;53159;55.152;36.614;2022-09-20T17:44:12;3.70;;;3.33;;
58055;SDS011;53159;55.152;36.614;2022-09-20T17:46:42;6.95;;;3.58;;
58055;SDS011;53159;55.152;36.614;2022-09-20T17:49:10;11.70;;;4.43;;
58055;SDS011;53159;55.152;36.614;2022-09-20T17:54:09;8.90;;;3.78;;
58055;SDS011;53159;55.152;36.614;2022-09-20T17:56:42;7.40;;;3.75;;
58055;SDS011;53159;55.152;36.614;2022-09-20T17:59:11;5.30;;;2.97;;
58055;SDS011;53159;55.152;36.614;2022-09-20T18:01:44;8.52;;;5.13;;
58055;SDS011;53159;55.152;36.614;2022-09-20T18:04:13;7.35;;;4.82;;
58055;SDS011;53159;55.152;36.614;2022-09-20T18:06:44;10.80;;;4.32;;
58055;SDS011;53159;55.152;36.614;2022-09-20T18:09:17;10.30;;;5.00;;
58055;SDS011;53159;55.152;36.614;2022-09-20T18:11:47;10.98;;;6.00;;
58055;SDS011;53159;55.152;36.614;2022-09-20T18:14:17;10.65;;;5.15;;
58055;SDS011;53159;55.152;36.614;2022-09-20T18:16:53;12.85;;;6.60;;
58055;SDS011;53159;55.152;36.614;2022-09-20T18:19:24;14.68;;;8.70;;
58055;SDS011;53159;55.152;36.614;2022-09-20T18:21:58;11.07;;;7.40;;
58055;SDS011;53159;55.152;36.614;2022-09-20T18:24:26;12.02;;;7.47;;
58055;SDS011;53159;55.152;36.614;2022-09-20T18:26:53;9.55;;;6.07;;
58055;SDS011;53159;55.152;36.614;2022-09-20T18:29:21;9.95;;;5.97;;
58055;SDS011;53159;55.152;36.614;2022-09-20T18:31:50;10.95;;;6.65;;
58055;SDS011;53159;55.152;36.614;2022-09-20T18:34:20;9.35;;;5.32;;
58055;SDS011;53159;55.152;36.614;2022-09-20T18:36:52;12.10;;;5.25;;
58055;SDS011;53159;55.152;36.614;2022-09-20T18:39:21;10.75;;;5.82;;
58055;SDS011;53159;55.152;36.614;2022-09-20T18:41:49;9.75;;;5.75;;
58055;SDS011;53159;55.152;36.614;2022-09-20T18:44:19;6.88;;;4.82;;
58055;SDS011;53159;55.152;36.614;2022-09-20T18:46:51;9.38;;;6.38;;
58055;SDS011;53159;55.152;36.614;2022-09-20T18:49:19;6.07;;;4.28;;
58055;SDS011;53159;55.152;36.614;2022-09-20T18:51:47;7.63;;;4.90;;
58055;SDS011;53159;55.152;36.614;2022-09-20T18:54:14;14.55;;;4.72;;
58055;SDS011;53159;55.152;36.614;2022-09-20T18:56:43;7.25;;;4.68;;
58055;SDS011;53159;55.152;36.614;2022-09-20T18:59:14;8.55;;;3.58;;
58055;SDS011;53159;55.152;36.614;2022-09-20T19:04:38;4.50;;;3.22;;
58055;SDS011;53159;55.152;36.614;2022-09-20T19:18:11;9.32;;;6.05;;
58055;SDS011;53159;55.152;36.614;2022-09-20T19:21:00;7.07;;;5.50;;
58055;SDS011;53159;55.152;36.614;2022-09-20T19:26:36;10.07;;;6.00;;
58055;SDS011;53159;55.152;36.614;2022-09-20T19:29:16;10.90;;;7.00;;
58055;SDS011;53159;55.152;36.614;2022-09-20T19:31:48;20.67;;;15.48;;
58055;SDS011;53159;55.152;36.614;2022-09-20T19:34:37;9.07;;;6.53;;
58055;SDS011;53159;55.152;36.614;2022-09-20T19:51:11;20.90;;;12.30;;
58055;SDS011;53159;55.152;36.614;2022-09-20T19:53:39;20.17;;;13.55;;
58055;SDS011;53159;55.152;36.614;2022-09-20T19:56:18;29.52;;;19.67;;
58055;SDS011;53159;55.152;36.614;2022-09-20T19:58:53;38.38;;;18.98;;
58055;SDS011;53159;55.152;36.614;2022-09-20T20:01:22;31.88;;;21.45;;
58055;SDS011;53159;55.152;36.614;2022-09-20T20:03:51;38.63;;;23.38;;
58055;SDS011;53159;55.152;36.614;2022-09-20T20:21:09;27.73;;;19.13;;
58055;SDS011;53159;55.152;36.614;2022-09-20T20:23:56;28.33;;;19.38;;
58055;SDS011;53159;55.152;36.614;2022-09-20T20:26:30;25.20;;;19.67;;
58055;SDS011;53159;55.152;36.614;2022-09-20T20:28:58;31.98;;;23.77;;
58055;SDS011;53159;55.152;36.614;2022-09-20T20:31:26;30.17;;;18.70;;
58055;SDS011;53159;55.152;36.614;2022-09-20T20:33:55;26.35;;;17.92;;
58055;SDS011;53159;55.152;36.614;2022-09-20T20:36:22;27.15;;;19.13;;
58055;SDS011;53159;55.152;36.614;2022-09-20T20:38:50;28.13;;;19.77;;
58055;SDS011;53159;55.152;36.614;2022-09-20T20:41:18;27.65;;;22.00;;
58055;SDS011;53159;55.152;36.614;2022-09-20T20:43:47;31.58;;;22.13;;
58055;SDS011;53159;55.152;36.614;2022-09-20T20:46:17;29.73;;;21.35;;
58055;SDS011;53159;55.152;36.614;2022-09-20T20:48:45;32.85;;;24.70;;
58055;SDS011;53159;55.152;36.614;2022-09-20T20:51:14;44.13;;;28.73;;
58055;SDS011;53159;55.152;36.614;2022-09-20T20:53:45;31.17;;;25.50;;
58055;SDS011;53159;55.152;36.614;2022-09-20T20:56:17;31.15;;;24.23;;
58055;SDS011;53159;55.152;36.614;2022-09-20T20:58:45;26.60;;;21.98;;
58055;SDS011;53159;55.152;36.614;2022-09-20T21:01:17;29.95;;;22.85;;
58055;SDS011;53159;55.152;36.614;2022-09-20T21:03:47;34.00;;;25.30;;
58055;SDS011;53159;55.152;36.614;2022-09-20T21:06:16;34.35;;;24.35;;
58055;SDS011;53159;55.152;36.614;2022-09-20T21:08:44;39.20;;;30.73;;
58055;SDS011;53159;55.152;36.614;2022-09-20T21:11:21;40.28;;;28.48;;
58055;SDS011;53159;55.152;36.614;2022-09-20T21:13:51;36.80;;;28.30;;